sensor_id;sensor_type;location;lat;lon;timestamp;temperature;humidity
43963;DHT22;29622;45.534;9.242;2023-05-10T00:04:41;19.70;54.40
43963;DHT22;29622;45.534;9.242;2023-05-10T00:09:42;19.80;54.70
43963;DHT22;29622;45.534;9.242;2023-05-10T00:14:43;19.90;54.40
43963;DHT22;29622;45.534;9.242;2023-05-10T00:19:44;19.90;54.40
43963;DHT22;29622;45.534;9.242;2023-05-10T00:24:45;19.90;54.40
43963;DHT22;29622;45.534;9.242;2023-05-10T00:29:45;19.90;54.40
43963;DHT22;29622;45.534;9.242;2023-05-10T00:34:46;19.90;54.50
43963;DHT22;29622;45.534;9.242;2023-05-10T00:39:46;19.90;54.30
43963;DHT22;29622;45.534;9.242;2023-05-10T00:44:47;19.90;54.30
43963;DHT22;29622;45.534;9.242;2023-05-10T00:49:48;20.00;54.40
43963;DHT22;29622;45.534;9.242;2023-05-10T00:54:51;20.10;54.10
43963;DHT22;29622;45.534;9.242;2023-05-10T00:59:52;20.10;54.00
43963;DHT22;29622;45.534;9.242;2023-05-10T01:04:52;20.00;54.10
43963;DHT22;29622;45.534;9.242;2023-05-10T01:09:53;20.00;54.20
43963;DHT22;29622;45.534;9.242;2023-05-10T01:14:54;20.00;54.10
43963;DHT22;29622;45.534;9.242;2023-05-10T01:19:55;20.00;54.00
43963;DHT22;29622;45.534;9.242;2023-05-10T01:35:59;19.70;54.40
43963;DHT22;29622;45.534;9.242;2023-05-10T01:46:37;19.70;54.30
43963;DHT22;29622;45.534;9.242;2023-05-10T01:51:52;19.70;54.30
43963;DHT22;29622;45.534;9.242;2023-05-10T01:57:03;19.70;54.30
43963;DHT22;29622;45.534;9.242;2023-05-10T02:02:06;19.80;54.20
43963;DHT22;29622;45.534;9.242;2023-05-10T02:07:08;19.70;54.20
43963;DHT22;29622;45.534;9.242;2023-05-10T02:12:12;19.70;54.20
43963;DHT22;29622;45.534;9.242;2023-05-10T02:17:14;19.70;54.30
43963;DHT22;29622;45.534;9.242;2023-05-10T02:22:16;19.80;54.10
43963;DHT22;29622;45.534;9.242;2023-05-10T02:27:17;19.70;53.90
43963;DHT22;29622;45.534;9.242;2023-05-10T02:32:21;19.60;53.90
43963;DHT22;29622;45.534;9.242;2023-05-10T02:37:24;19.50;54.30
43963;DHT22;29622;45.534;9.242;2023-05-10T02:42:27;19.40;54.00
43963;DHT22;29622;45.534;9.242;2023-05-10T02:47:29;19.40;54.00
43963;DHT22;29622;45.534;9.242;2023-05-10T02:52:36;19.40;54.10
43963;DHT22;29622;45.534;9.242;2023-05-10T02:57:52;19.30;54.10
43963;DHT22;29622;45.534;9.242;2023-05-10T03:02:55;19.20;54.20
43963;DHT22;29622;45.534;9.242;2023-05-10T03:07:56;19.10;54.20
43963;DHT22;29622;45.534;9.242;2023-05-10T03:13:29;19.00;54.30
43963;DHT22;29622;45.534;9.242;2023-05-10T03:23:59;18.80;54.50
43963;DHT22;29622;45.534;9.242;2023-05-10T03:29:01;18.90;55.00
43963;DHT22;29622;45.534;9.242;2023-05-10T03:34:02;18.90;54.80
43963;DHT22;29622;45.534;9.242;2023-05-10T03:39:03;18.90;54.80
43963;DHT22;29622;45.534;9.242;2023-05-10T03:44:04;18.90;55.00
43963;DHT22;29622;45.534;9.242;2023-05-10T03:49:05;19.00;54.90
43963;DHT22;29622;45.534;9.242;2023-05-10T03:54:06;19.00;54.60
43963;DHT22;29622;45.534;9.242;2023-05-10T03:59:07;19.00;54.60
43963;DHT22;29622;45.534;9.242;2023-05-10T04:04:09;18.90;54.70
43963;DHT22;29622;45.534;9.242;2023-05-10T04:09:10;18.70;54.90
43963;DHT22;29622;45.534;9.242;2023-05-10T04:14:11;18.70;55.00
43963;DHT22;29622;45.534;9.242;2023-05-10T04:19:11;18.70;55.00
43963;DHT22;29622;45.534;9.242;2023-05-10T04:24:12;18.70;55.00
43963;DHT22;29622;45.534;9.242;2023-05-10T04:29:12;18.70;55.00
43963;DHT22;29622;45.534;9.242;2023-05-10T04:34:13;18.60;55.10
43963;DHT22;29622;45.534;9.242;2023-05-10T04:39:14;18.50;55.10
43963;DHT22;29622;45.534;9.242;2023-05-10T04:44:14;18.40;55.20
43963;DHT22;29622;45.534;9.242;2023-05-10T04:49:15;18.30;55.40
43963;DHT22;29622;45.534;9.242;2023-05-10T04:54:16;18.20;56.10
43963;DHT22;29622;45.534;9.242;2023-05-10T04:59:17;18.20;55.70
43963;DHT22;29622;45.534;9.242;2023-05-10T05:04:17;18.20;55.70
43963;DHT22;29622;45.534;9.242;2023-05-10T05:09:18;18.20;55.60
43963;DHT22;29622;45.534;9.242;2023-05-10T05:14:18;18.10;55.60
43963;DHT22;29622;45.534;9.242;2023-05-10T05:19:21;18.10;55.80
43963;DHT22;29622;45.534;9.242;2023-05-10T05:24:21;18.10;55.80
43963;DHT22;29622;45.534;9.242;2023-05-10T05:29:22;18.00;55.80
43963;DHT22;29622;45.534;9.242;2023-05-10T05:34:23;18.00;56.00
43963;DHT22;29622;45.534;9.242;2023-05-10T05:39:24;17.90;56.10
43963;DHT22;29622;45.534;9.242;2023-05-10T05:44:25;17.90;56.10
43963;DHT22;29622;45.534;9.242;2023-05-10T05:49:25;17.80;56.20
43963;DHT22;29622;45.534;9.242;2023-05-10T05:54:26;17.70;56.30
43963;DHT22;29622;45.534;9.242;2023-05-10T05:59:28;17.60;56.40
43963;DHT22;29622;45.534;9.242;2023-05-10T06:04:28;17.50;56.60
43963;DHT22;29622;45.534;9.242;2023-05-10T06:09:29;17.40;56.90
43963;DHT22;29622;45.534;9.242;2023-05-10T06:14:30;17.40;57.10
43963;DHT22;29622;45.534;9.242;2023-05-10T06:19:30;17.40;57.30
43963;DHT22;29622;45.534;9.242;2023-05-10T06:24:31;17.40;57.40
43963;DHT22;29622;45.534;9.242;2023-05-10T06:29:32;17.50;57.40
43963;DHT22;29622;45.534;9.242;2023-05-10T06:34:33;17.60;57.50
43963;DHT22;29622;45.534;9.242;2023-05-10T06:39:33;17.60;57.50
43963;DHT22;29622;45.534;9.242;2023-05-10T06:44:34;17.80;57.60
43963;DHT22;29622;45.534;9.242;2023-05-10T06:49:34;18.10;57.70
43963;DHT22;29622;45.534;9.242;2023-05-10T06:54:35;18.40;57.30
43963;DHT22;29622;45.534;9.242;2023-05-10T06:59:36;19.10;57.10
43963;DHT22;29622;45.534;9.242;2023-05-10T07:04:36;19.40;56.20
43963;DHT22;29622;45.534;9.242;2023-05-10T07:09:37;19.40;56.30
43963;DHT22;29622;45.534;9.242;2023-05-10T07:14:38;19.30;55.70
43963;DHT22;29622;45.534;9.242;2023-05-10T07:19:38;19.30;55.90
43963;DHT22;29622;45.534;9.242;2023-05-10T07:24:39;19.40;55.50
43963;DHT22;29622;45.534;9.242;2023-05-10T07:29:40;19.40;55.10
43963;DHT22;29622;45.534;9.242;2023-05-10T07:34:41;19.40;55.10
43963;DHT22;29622;45.534;9.242;2023-05-10T07:39:42;19.10;55.10
43963;DHT22;29622;45.534;9.242;2023-05-10T07:44:42;19.10;55.30
43963;DHT22;29622;45.534;9.242;2023-05-10T07:49:43;19.20;55.20
43963;DHT22;29622;45.534;9.242;2023-05-10T07:54:44;19.30;55.30
43963;DHT22;29622;45.534;9.242;2023-05-10T07:59:44;19.40;55.10
43963;DHT22;29622;45.534;9.242;2023-05-10T08:04:45;19.40;55.00
43963;DHT22;29622;45.534;9.242;2023-05-10T08:09:46;19.20;55.00
43963;DHT22;29622;45.534;9.242;2023-05-10T08:14:47;19.40;55.40
43963;DHT22;29622;45.534;9.242;2023-05-10T08:19:48;19.90;54.80
43963;DHT22;29622;45.534;9.242;2023-05-10T08:24:49;19.80;54.30
43963;DHT22;29622;45.534;9.242;2023-05-10T08:29:49;20.00;54.70
43963;DHT22;29622;45.534;9.242;2023-05-10T08:34:50;20.40;54.40
43963;DHT22;29622;45.534;9.242;2023-05-10T08:39:51;20.90;54.10
43963;DHT22;29622;45.534;9.242;2023-05-10T08:44:53;21.30;53.70
43963;DHT22;29622;45.534;9.242;2023-05-10T08:49:54;21.60;53.20
43963;DHT22;29622;45.534;9.242;2023-05-10T08:54:56;21.90;53.00
43963;DHT22;29622;45.534;9.242;2023-05-10T08:59:56;22.10;52.40
43963;DHT22;29622;45.534;9.242;2023-05-10T09:04:57;21.90;51.70
43963;DHT22;29622;45.534;9.242;2023-05-10T09:09:58;21.50;51.80
43963;DHT22;29622;45.534;9.242;2023-05-10T09:14:59;21.20;52.20
43963;DHT22;29622;45.534;9.242;2023-05-10T09:20:02;21.00;52.40
43963;DHT22;29622;45.534;9.242;2023-05-10T09:25:07;20.90;52.50
43963;DHT22;29622;45.534;9.242;2023-05-10T09:30:09;20.90;52.50
43963;DHT22;29622;45.534;9.242;2023-05-10T09:35:11;20.80;52.30
43963;DHT22;29622;45.534;9.242;2023-05-10T09:40:19;20.70;52.30
43963;DHT22;29622;45.534;9.242;2023-05-10T09:45:21;20.60;52.30
43963;DHT22;29622;45.534;9.242;2023-05-10T09:50:22;20.40;52.50
43963;DHT22;29622;45.534;9.242;2023-05-10T09:55:25;20.50;52.70
43963;DHT22;29622;45.534;9.242;2023-05-10T10:00:26;20.60;52.30
43963;DHT22;29622;45.534;9.242;2023-05-10T10:05:32;20.90;52.30
43963;DHT22;29622;45.534;9.242;2023-05-10T10:10:33;21.30;51.90
43963;DHT22;29622;45.534;9.242;2023-05-10T10:15:34;21.50;51.40
43963;DHT22;29622;45.534;9.242;2023-05-10T10:20:37;21.70;51.00
43963;DHT22;29622;45.534;9.242;2023-05-10T10:25:38;21.80;50.60
43963;DHT22;29622;45.534;9.242;2023-05-10T10:30:43;21.80;50.60
43963;DHT22;29622;45.534;9.242;2023-05-10T10:35:46;21.90;50.60
43963;DHT22;29622;45.534;9.242;2023-05-10T10:40:47;22.00;50.90
43963;DHT22;29622;45.534;9.242;2023-05-10T10:51:13;22.20;50.00
43963;DHT22;29622;45.534;9.242;2023-05-10T10:56:13;22.20;49.90
43963;DHT22;29622;45.534;9.242;2023-05-10T11:01:17;22.20;49.80
43963;DHT22;29622;45.534;9.242;2023-05-10T11:06:31;22.20;49.70
43963;DHT22;29622;45.534;9.242;2023-05-10T11:11:34;22.10;49.60
43963;DHT22;29622;45.534;9.242;2023-05-10T11:16:43;22.20;49.60
43963;DHT22;29622;45.534;9.242;2023-05-10T11:21:52;22.20;49.40
43963;DHT22;29622;45.534;9.242;2023-05-10T11:27:11;22.20;49.40
43963;DHT22;29622;45.534;9.242;2023-05-10T11:32:12;22.20;49.20
43963;DHT22;29622;45.534;9.242;2023-05-10T11:37:14;22.00;49.20
43963;DHT22;29622;45.534;9.242;2023-05-10T11:42:14;22.10;49.30
43963;DHT22;29622;45.534;9.242;2023-05-10T11:47:15;22.10;49.00
43963;DHT22;29622;45.534;9.242;2023-05-10T11:52:18;22.10;49.00
43963;DHT22;29622;45.534;9.242;2023-05-10T11:57:20;22.20;49.10
43963;DHT22;29622;45.534;9.242;2023-05-10T12:02:21;22.20;49.10
43963;DHT22;29622;45.534;9.242;2023-05-10T12:07:22;22.40;49.30
43963;DHT22;29622;45.534;9.242;2023-05-10T12:12:22;22.60;49.10
43963;DHT22;29622;45.534;9.242;2023-05-10T12:17:27;22.80;49.10
43963;DHT22;29622;45.534;9.242;2023-05-10T12:22:29;22.90;49.10
43963;DHT22;29622;45.534;9.242;2023-05-10T12:27:32;22.70;49.00
43963;DHT22;29622;45.534;9.242;2023-05-10T12:32:40;22.60;49.20
43963;DHT22;29622;45.534;9.242;2023-05-10T12:37:43;22.50;49.00
43963;DHT22;29622;45.534;9.242;2023-05-10T12:42:43;22.40;48.80
43963;DHT22;29622;45.534;9.242;2023-05-10T12:47:47;22.20;48.80
43963;DHT22;29622;45.534;9.242;2023-05-10T12:52:47;22.00;49.20
43963;DHT22;29622;45.534;9.242;2023-05-10T12:57:48;22.10;49.60
43963;DHT22;29622;45.534;9.242;2023-05-10T13:02:49;22.20;49.10
43963;DHT22;29622;45.534;9.242;2023-05-10T13:07:49;22.30;49.30
43963;DHT22;29622;45.534;9.242;2023-05-10T13:12:50;22.60;49.50
43963;DHT22;29622;45.534;9.242;2023-05-10T13:17:51;22.90;49.30
43963;DHT22;29622;45.534;9.242;2023-05-10T13:22:52;23.10;49.30
43963;DHT22;29622;45.534;9.242;2023-05-10T13:27:53;23.20;49.10
43963;DHT22;29622;45.534;9.242;2023-05-10T13:32:53;23.40;49.30
43963;DHT22;29622;45.534;9.242;2023-05-10T13:37:54;23.50;49.30
43963;DHT22;29622;45.534;9.242;2023-05-10T13:42:57;23.60;49.40
43963;DHT22;29622;45.534;9.242;2023-05-10T13:47:57;23.60;49.30
43963;DHT22;29622;45.534;9.242;2023-05-10T13:52:58;23.60;49.10
43963;DHT22;29622;45.534;9.242;2023-05-10T13:57:59;23.60;49.30
43963;DHT22;29622;45.534;9.242;2023-05-10T14:02:59;23.70;49.50
43963;DHT22;29622;45.534;9.242;2023-05-10T14:08:00;23.70;49.50
43963;DHT22;29622;45.534;9.242;2023-05-10T14:13:01;23.80;49.50
43963;DHT22;29622;45.534;9.242;2023-05-10T14:18:03;23.80;49.50
43963;DHT22;29622;45.534;9.242;2023-05-10T14:23:04;23.80;49.50
43963;DHT22;29622;45.534;9.242;2023-05-10T14:28:04;23.80;49.50
43963;DHT22;29622;45.534;9.242;2023-05-10T14:33:05;23.70;49.60
43963;DHT22;29622;45.534;9.242;2023-05-10T14:38:05;23.70;49.70
43963;DHT22;29622;45.534;9.242;2023-05-10T14:43:06;23.70;49.80
43963;DHT22;29622;45.534;9.242;2023-05-10T14:48:07;23.80;49.80
43963;DHT22;29622;45.534;9.242;2023-05-10T14:53:11;23.80;49.50
43963;DHT22;29622;45.534;9.242;2023-05-10T14:58:12;23.80;49.40
43963;DHT22;29622;45.534;9.242;2023-05-10T15:03:12;23.60;49.00
43963;DHT22;29622;45.534;9.242;2023-05-10T15:08:13;23.60;49.20
43963;DHT22;29622;45.534;9.242;2023-05-10T15:13:14;23.60;49.30
43963;DHT22;29622;45.534;9.242;2023-05-10T15:18:14;23.70;49.40
43963;DHT22;29622;45.534;9.242;2023-05-10T15:23:15;23.70;49.20
43963;DHT22;29622;45.534;9.242;2023-05-10T15:28:16;23.70;49.10
43963;DHT22;29622;45.534;9.242;2023-05-10T15:33:16;23.70;49.10
43963;DHT22;29622;45.534;9.242;2023-05-10T15:38:17;23.70;49.10
43963;DHT22;29622;45.534;9.242;2023-05-10T15:43:18;23.70;49.20
43963;DHT22;29622;45.534;9.242;2023-05-10T15:48:18;23.70;49.00
43963;DHT22;29622;45.534;9.242;2023-05-10T15:53:19;23.60;48.70
43963;DHT22;29622;45.534;9.242;2023-05-10T15:58:20;23.60;48.80
43963;DHT22;29622;45.534;9.242;2023-05-10T16:03:20;23.60;48.70
43963;DHT22;29622;45.534;9.242;2023-05-10T16:08:21;23.60;48.70
43963;DHT22;29622;45.534;9.242;2023-05-10T16:13:22;23.60;48.70
43963;DHT22;29622;45.534;9.242;2023-05-10T16:18:23;23.60;48.50
43963;DHT22;29622;45.534;9.242;2023-05-10T16:23:23;23.60;48.50
43963;DHT22;29622;45.534;9.242;2023-05-10T16:28:24;23.60;48.60
43963;DHT22;29622;45.534;9.242;2023-05-10T16:33:25;23.60;48.30
43963;DHT22;29622;45.534;9.242;2023-05-10T16:38:25;23.60;47.90
43963;DHT22;29622;45.534;9.242;2023-05-10T16:43:26;23.40;47.50
43963;DHT22;29622;45.534;9.242;2023-05-10T16:48:27;23.30;47.40
43963;DHT22;29622;45.534;9.242;2023-05-10T16:53:27;23.30;47.40
43963;DHT22;29622;45.534;9.242;2023-05-10T16:58:28;23.20;47.40
43963;DHT22;29622;45.534;9.242;2023-05-10T17:03:29;23.20;47.20
43963;DHT22;29622;45.534;9.242;2023-05-10T17:08:29;23.10;47.10
43963;DHT22;29622;45.534;9.242;2023-05-10T17:13:30;23.10;47.10
43963;DHT22;29622;45.534;9.242;2023-05-10T17:18:31;23.10;47.10
43963;DHT22;29622;45.534;9.242;2023-05-10T17:23:31;23.10;46.90
43963;DHT22;29622;45.534;9.242;2023-05-10T17:28:32;23.10;46.80
43963;DHT22;29622;45.534;9.242;2023-05-10T17:33:33;23.10;46.80
43963;DHT22;29622;45.534;9.242;2023-05-10T17:38:34;23.10;46.80
43963;DHT22;29622;45.534;9.242;2023-05-10T17:43:35;23.00;46.80
43963;DHT22;29622;45.534;9.242;2023-05-10T17:48:35;23.00;46.90
43963;DHT22;29622;45.534;9.242;2023-05-10T17:53:38;23.00;47.00
43963;DHT22;29622;45.534;9.242;2023-05-10T17:58:38;23.00;46.90
43963;DHT22;29622;45.534;9.242;2023-05-10T18:03:39;22.80;46.80
43963;DHT22;29622;45.534;9.242;2023-05-10T18:08:40;22.70;47.20
43963;DHT22;29622;45.534;9.242;2023-05-10T18:13:41;22.70;47.10
43963;DHT22;29622;45.534;9.242;2023-05-10T18:18:41;22.60;47.10
43963;DHT22;29622;45.534;9.242;2023-05-10T18:23:42;22.60;47.50
43963;DHT22;29622;45.534;9.242;2023-05-10T18:28:43;22.70;47.70
43963;DHT22;29622;45.534;9.242;2023-05-10T18:33:43;22.70;47.50
43963;DHT22;29622;45.534;9.242;2023-05-10T18:38:44;22.60;47.70
43963;DHT22;29622;45.534;9.242;2023-05-10T18:43:45;22.60;47.90
43963;DHT22;29622;45.534;9.242;2023-05-10T18:48:46;22.50;47.70
43963;DHT22;29622;45.534;9.242;2023-05-10T18:53:47;22.00;48.00
43963;DHT22;29622;45.534;9.242;2023-05-10T18:58:48;22.10;48.30
43963;DHT22;29622;45.534;9.242;2023-05-10T19:03:49;21.90;48.00
43963;DHT22;29622;45.534;9.242;2023-05-10T19:08:50;21.90;48.70
43963;DHT22;29622;45.534;9.242;2023-05-10T19:13:50;22.20;48.70
43963;DHT22;29622;45.534;9.242;2023-05-10T19:18:51;22.40;48.40
43963;DHT22;29622;45.534;9.242;2023-05-10T19:23:52;22.40;48.60
43963;DHT22;29622;45.534;9.242;2023-05-10T19:28:53;22.50;49.60
43963;DHT22;29622;45.534;9.242;2023-05-10T19:33:53;22.70;49.50
43963;DHT22;29622;45.534;9.242;2023-05-10T19:38:54;22.90;49.30
43963;DHT22;29622;45.534;9.242;2023-05-10T19:43:55;23.00;49.10
43963;DHT22;29622;45.534;9.242;2023-05-10T19:48:56;23.10;49.00
43963;DHT22;29622;45.534;9.242;2023-05-10T19:53:57;23.00;48.90
43963;DHT22;29622;45.534;9.242;2023-05-10T19:58:58;22.90;49.20
43963;DHT22;29622;45.534;9.242;2023-05-10T20:03:59;23.00;49.40
43963;DHT22;29622;45.534;9.242;2023-05-10T20:08:59;23.10;49.30
43963;DHT22;29622;45.534;9.242;2023-05-10T20:14:00;23.20;49.10
43963;DHT22;29622;45.534;9.242;2023-05-10T20:19:01;23.30;48.80
43963;DHT22;29622;45.534;9.242;2023-05-10T20:24:02;23.20;48.60
43963;DHT22;29622;45.534;9.242;2023-05-10T20:29:02;23.30;48.50
43963;DHT22;29622;45.534;9.242;2023-05-10T20:34:03;23.30;48.50
43963;DHT22;29622;45.534;9.242;2023-05-10T20:39:04;23.20;48.20
43963;DHT22;29622;45.534;9.242;2023-05-10T20:44:04;23.20;48.40
43963;DHT22;29622;45.534;9.242;2023-05-10T20:49:07;23.10;48.30
43963;DHT22;29622;45.534;9.242;2023-05-10T20:54:08;23.00;48.40
43963;DHT22;29622;45.534;9.242;2023-05-10T20:59:09;22.90;48.60
43963;DHT22;29622;45.534;9.242;2023-05-10T21:04:10;23.00;48.60
43963;DHT22;29622;45.534;9.242;2023-05-10T21:09:11;23.00;48.20
43963;DHT22;29622;45.534;9.242;2023-05-10T21:14:12;22.70;47.90
43963;DHT22;29622;45.534;9.242;2023-05-10T21:19:13;21.90;48.10
43963;DHT22;29622;45.534;9.242;2023-05-10T21:24:13;21.40;49.10
43963;DHT22;29622;45.534;9.242;2023-05-10T21:29:14;21.50;49.90
43963;DHT22;29622;45.534;9.242;2023-05-10T21:34:14;21.90;49.50
43963;DHT22;29622;45.534;9.242;2023-05-10T21:39:17;21.90;49.20
43963;DHT22;29622;45.534;9.242;2023-05-10T21:44:17;22.10;49.40
43963;DHT22;29622;45.534;9.242;2023-05-10T21:49:18;22.20;48.90
43963;DHT22;29622;45.534;9.242;2023-05-10T21:54:19;21.80;48.50
43963;DHT22;29622;45.534;9.242;2023-05-10T21:59:19;21.40;49.30
43963;DHT22;29622;45.534;9.242;2023-05-10T22:04:21;21.40;49.40
43963;DHT22;29622;45.534;9.242;2023-05-10T22:09:21;21.20;49.00
43963;DHT22;29622;45.534;9.242;2023-05-10T22:14:23;20.70;49.40
43963;DHT22;29622;45.534;9.242;2023-05-10T22:19:24;20.20;49.80
43963;DHT22;29622;45.534;9.242;2023-05-10T22:24:25;19.70;50.20
43963;DHT22;29622;45.534;9.242;2023-05-10T22:29:25;19.50;51.10
43963;DHT22;29622;45.534;9.242;2023-05-10T22:34:26;19.80;51.40
43963;DHT22;29622;45.534;9.242;2023-05-10T22:39:27;20.10;51.20
43963;DHT22;29622;45.534;9.242;2023-05-10T22:44:27;20.60;51.30
43963;DHT22;29622;45.534;9.242;2023-05-10T22:49:28;21.00;50.60
43963;DHT22;29622;45.534;9.242;2023-05-10T22:54:29;20.90;49.90
43963;DHT22;29622;45.534;9.242;2023-05-10T22:59:30;20.50;50.20
43963;DHT22;29622;45.534;9.242;2023-05-10T23:04:30;20.40;50.80
43963;DHT22;29622;45.534;9.242;2023-05-10T23:09:31;20.60;50.80
43963;DHT22;29622;45.534;9.242;2023-05-10T23:14:32;20.70;50.30
43963;DHT22;29622;45.534;9.242;2023-05-10T23:19:33;20.60;50.00
43963;DHT22;29622;45.534;9.242;2023-05-10T23:24:33;20.10;50.20
43963;DHT22;29622;45.534;9.242;2023-05-10T23:29:34;19.80;50.80
43963;DHT22;29622;45.534;9.242;2023-05-10T23:34:34;19.50;51.10
43963;DHT22;29622;45.534;9.242;2023-05-10T23:39:35;19.40;51.50
43963;DHT22;29622;45.534;9.242;2023-05-10T23:44:36;19.20;51.50
43963;DHT22;29622;45.534;9.242;2023-05-10T23:49:37;18.90;51.90
43963;DHT22;29622;45.534;9.242;2023-05-10T23:54:37;18.70;52.10
43963;DHT22;29622;45.534;9.242;2023-05-10T23:59:38;18.60;52.50
